Time;durP1;ratioP1;P1;durP2;ratioP2;P2;SDS_P1;SDS_P2;PMS_P1;PMS_P2;Temp;Humidity;BMP_temperature;BMP_pressure;BME280_temperature;BME280_humidity;BME280_pressure;Samples;Min_cycle;Max_cycle;Signal;HPM_P1;HPM_P2
2022/05/15 00:00:41;;;;;;;22.10;9.03;;;16.10;99.90;;;;;;5094818;28;20673;-85
2022/05/15 00:03:14;;;;;;;19.90;8.30;;;16.10;99.90;;;;;;5097222;28;20190;-88
2022/05/15 00:05:41;;;;;;;19.03;8.77;;;16.10;99.90;;;;;;5098033;28;20189;-88
2022/05/15 00:08:10;;;;;;;15.73;7.50;;;16.10;99.90;;;;;;5099219;28;20194;-90
2022/05/15 00:10:39;;;;;;;19.30;8.13;;;16.10;99.90;;;;;;5098649;28;20217;-88
2022/05/15 00:13:07;;;;;;;20.40;8.07;;;16.20;99.90;;;;;;5094875;28;20210;-85
2022/05/15 00:15:34;;;;;;;16.33;7.70;;;16.10;99.90;;;;;;5097814;28;20250;-90
2022/05/15 00:18:01;;;;;;;19.43;7.90;;;16.10;99.90;;;;;;5098264;28;20193;-90
2022/05/15 00:20:30;;;;;;;14.03;7.47;;;15.80;99.90;;;;;;5097272;28;20196;-89
2022/05/15 00:22:57;;;;;;;23.20;8.00;;;15.80;99.90;;;;;;5095995;28;20204;-85
2022/05/15 00:25:24;;;;;;;16.00;7.30;;;15.70;99.90;;;;;;5096680;28;20216;-85
2022/05/15 00:27:51;;;;;;;16.73;7.60;;;15.80;99.90;;;;;;5096801;28;20209;-87
2022/05/15 00:30:21;;;;;;;17.37;7.13;;;15.70;99.90;;;;;;5095324;28;20233;-86
2022/05/15 00:32:48;;;;;;;19.43;7.83;;;15.70;99.90;;;;;;5096793;28;20221;-89
2022/05/15 00:35:15;;;;;;;16.53;7.50;;;15.60;99.90;;;;;;5097823;28;20674;-89
2022/05/15 00:37:43;;;;;;;17.60;7.43;;;15.70;99.90;;;;;;5097204;28;20216;-88
2022/05/15 00:40:12;;;;;;;18.00;7.83;;;15.60;99.90;;;;;;5097584;28;20197;-88
2022/05/15 00:42:39;;;;;;;18.60;7.83;;;15.70;99.90;;;;;;5096700;28;20197;-88
2022/05/15 00:45:08;;;;;;;19.33;7.33;;;15.60;99.90;;;;;;5097466;28;20208;-89
2022/05/15 00:47:35;;;;;;;19.90;7.20;;;15.60;99.90;;;;;;5095859;28;20215;-89
2022/05/15 00:50:04;;;;;;;21.33;7.73;;;15.50;99.90;;;;;;5095713;28;20225;-89
2022/05/15 00:52:34;;;;;;;19.83;8.52;;;15.50;99.90;;;;;;5094018;28;20439;-88
2022/05/15 00:55:09;;;;;;;19.73;7.93;;;15.50;99.90;;;;;;5096599;28;20219;-90
2022/05/15 00:57:40;;;;;;;22.60;8.20;;;15.50;99.90;;;;;;5097185;28;20299;-88
2022/05/15 01:00:10;;;;;;;22.47;8.00;;;15.50;99.90;;;;;;5097489;28;20205;-89
2022/05/15 01:02:40;;;;;;;15.73;7.73;;;15.40;99.90;;;;;;5096970;28;20197;-89
2022/05/15 01:05:10;;;;;;;18.43;7.47;;;15.30;99.90;;;;;;5093033;28;20216;-90
2022/05/15 01:07:37;;;;;;;16.47;7.80;;;15.30;99.90;;;;;;5097051;28;20201;-89
2022/05/15 01:10:08;;;;;;;18.50;8.20;;;15.30;99.90;;;;;;5101445;28;20224;-87
2022/05/15 01:12:36;;;;;;;18.67;8.60;;;15.30;99.90;;;;;;5102063;28;20213;-89
2022/05/15 01:15:05;;;;;;;18.27;7.53;;;15.10;99.90;;;;;;5099783;28;20201;-88
2022/05/15 01:17:32;;;;;;;23.03;8.50;;;15.00;99.90;;;;;;5097009;28;20197;-89
2022/05/15 01:20:06;;;;;;;22.73;8.20;;;15.10;99.90;;;;;;5096835;28;20260;-89
2022/05/15 01:22:34;;;;;;;18.67;8.37;;;15.00;99.90;;;;;;5096955;28;20204;-89
2022/05/15 01:25:12;;;;;;;15.80;7.87;;;15.00;99.90;;;;;;5096970;28;20557;-88
2022/05/15 01:27:39;;;;;;;22.17;8.00;;;14.90;99.90;;;;;;5096156;28;20196;-88
2022/05/15 01:30:07;;;;;;;21.03;8.07;;;14.90;99.90;;;;;;5095727;28;20217;-89
2022/05/15 01:32:34;;;;;;;19.17;7.47;;;15.00;99.90;;;;;;5096887;28;20221;-91
2022/05/15 01:35:01;;;;;;;14.90;7.80;;;14.90;99.90;;;;;;5096200;28;20208;-89
2022/05/15 01:37:27;;;;;;;20.53;8.47;;;14.80;99.90;;;;;;5097107;28;20205;-89
2022/05/15 01:39:55;;;;;;;18.97;7.83;;;14.80;99.90;;;;;;5097264;28;20205;-88
2022/05/15 01:42:22;;;;;;;23.13;8.93;;;14.90;99.90;;;;;;5097941;28;20239;-89
2022/05/15 01:44:49;;;;;;;16.87;7.97;;;14.90;99.90;;;;;;5100580;28;20208;-88
2022/05/15 01:47:16;;;;;;;18.97;7.93;;;14.90;99.90;;;;;;5100870;28;20381;-90
2022/05/15 01:49:43;;;;;;;23.23;8.90;;;14.90;99.90;;;;;;5100695;28;20267;-89
2022/05/15 01:52:10;;;;;;;13.77;7.57;;;14.90;99.90;;;;;;5100528;28;20220;-88
2022/05/15 01:54:36;;;;;;;22.53;8.27;;;14.80;99.90;;;;;;5099377;28;20219;-89
2022/05/15 01:57:06;;;;;;;20.47;8.97;;;14.80;99.90;;;;;;5099668;28;20199;-88
2022/05/15 01:59:33;;;;;;;18.90;8.80;;;14.70;99.90;;;;;;5099479;28;20207;-89
2022/05/15 02:02:00;;;;;;;23.23;8.73;;;14.70;99.90;;;;;;5099408;28;20192;-90
2022/05/15 02:04:26;;;;;;;22.60;9.10;;;14.70;99.90;;;;;;5100047;28;20434;-88
2022/05/15 02:06:53;;;;;;;24.30;8.63;;;14.70;99.90;;;;;;5099476;28;20196;-87
2022/05/15 02:09:20;;;;;;;20.53;8.93;;;14.60;99.90;;;;;;5097607;28;20204;-86
2022/05/15 02:11:47;;;;;;;21.03;8.53;;;14.60;99.90;;;;;;5097286;28;20220;-86
2022/05/15 02:14:15;;;;;;;18.13;8.77;;;14.50;99.90;;;;;;5097853;28;20205;-87
2022/05/15 02:16:42;;;;;;;17.93;8.33;;;14.70;99.90;;;;;;5100008;28;20211;-89
2022/05/15 02:19:09;;;;;;;24.90;8.57;;;14.70;99.90;;;;;;5099205;28;20298;-89
2022/05/15 02:21:36;;;;;;;19.53;9.07;;;14.60;99.90;;;;;;5099830;28;20216;-88
2022/05/15 02:24:03;;;;;;;23.87;9.63;;;14.50;99.90;;;;;;5099302;28;20208;-89
2022/05/15 02:26:30;;;;;;;22.97;9.23;;;14.50;99.90;;;;;;5099369;28;20275;-89
2022/05/15 02:28:57;;;;;;;18.90;8.90;;;14.40;99.90;;;;;;5099197;28;20214;-86
2022/05/15 02:31:25;;;;;;;21.33;8.70;;;14.50;99.90;;;;;;5099958;28;20238;-90
2022/05/15 02:33:52;;;;;;;24.17;8.77;;;14.50;99.90;;;;;;5100122;28;20234;-90
2022/05/15 02:36:19;;;;;;;17.67;8.43;;;14.30;99.90;;;;;;5100743;28;20216;-89
2022/05/15 02:38:46;;;;;;;22.53;9.00;;;14.30;99.90;;;;;;5100007;28;20197;-90
2022/05/15 02:41:13;;;;;;;17.10;9.10;;;14.40;99.90;;;;;;5100440;28;20193;-89
2022/05/15 02:43:39;;;;;;;24.20;9.53;;;14.40;99.90;;;;;;5100785;28;20559;-89
2022/05/15 02:46:06;;;;;;;26.97;9.13;;;14.40;99.90;;;;;;5099800;28;20223;-91
2022/05/15 02:51:19;;;;;;;27.97;10.10;;;14.30;99.90;;;;;;5100368;28;20366;-86
2022/05/15 02:53:46;;;;;;;17.90;8.17;;;14.20;99.90;;;;;;5098864;28;20561;-87
2022/05/15 02:56:16;;;;;;;20.43;8.60;;;14.20;99.90;;;;;;5099269;28;20223;-87
2022/05/15 02:58:43;;;;;;;22.67;9.47;;;14.10;99.90;;;;;;5103661;28;20199;-86
2022/05/15 03:01:09;;;;;;;20.90;9.43;;;14.10;99.90;;;;;;5107104;28;20206;-86
2022/05/15 03:03:38;;;;;;;20.67;9.53;;;14.10;99.90;;;;;;5102616;28;20206;-89
2022/05/15 03:06:05;;;;;;;19.77;10.27;;;14.00;99.90;;;;;;5100426;28;20209;-89
2022/05/15 03:08:33;;;;;;;21.30;9.13;;;14.10;99.90;;;;;;5100101;28;20250;-91
2022/05/15 03:11:00;;;;;;;26.80;10.03;;;14.00;99.90;;;;;;5098296;28;20238;-85
2022/05/15 03:13:27;;;;;;;21.33;9.40;;;14.00;99.90;;;;;;5099897;28;20215;-88
2022/05/15 03:15:53;;;;;;;28.57;10.87;;;14.10;99.90;;;;;;5098670;28;20207;-89
2022/05/15 03:18:20;;;;;;;24.83;11.38;;;14.00;99.90;;;;;;5097545;28;20422;-90
2022/05/15 03:20:49;;;;;;;24.67;9.90;;;14.20;99.90;;;;;;5098359;28;20211;-88
2022/05/15 03:23:16;;;;;;;19.27;8.57;;;14.20;99.90;;;;;;5098639;28;20204;-87
2022/05/15 03:25:43;;;;;;;22.93;10.50;;;14.10;99.90;;;;;;5098383;28;20282;-86
2022/05/15 03:28:11;;;;;;;20.57;8.70;;;14.00;99.90;;;;;;5097332;28;20204;-86
2022/05/15 03:30:38;;;;;;;18.10;9.10;;;14.10;99.90;;;;;;5098485;28;20220;-88
2022/05/15 03:33:05;;;;;;;22.47;9.53;;;14.10;99.90;;;;;;5099285;28;20236;-88
2022/05/15 03:35:33;;;;;;;19.60;9.60;;;14.10;99.90;;;;;;5099255;28;20200;-87
2022/05/15 03:38:01;;;;;;;23.83;9.80;;;14.10;99.90;;;;;;5098568;28;20196;-89
2022/05/15 03:40:28;;;;;;;23.43;9.63;;;14.10;99.90;;;;;;5098999;28;20194;-87
2022/05/15 03:42:55;;;;;;;23.17;9.63;;;14.10;99.90;;;;;;5099372;28;20204;-86
2022/05/15 03:45:22;;;;;;;19.40;9.80;;;14.00;99.90;;;;;;5098361;28;20206;-88
2022/05/15 03:47:51;;;;;;;20.77;9.00;;;13.90;99.90;;;;;;5099903;28;20211;-89
2022/05/15 03:50:20;;;;;;;21.73;10.20;;;13.90;99.90;;;;;;5098750;28;20203;-87
2022/05/15 03:52:47;;;;;;;22.70;9.10;;;13.80;99.90;;;;;;5097811;28;20214;-89
2022/05/15 03:55:17;;;;;;;21.93;9.63;;;13.80;99.90;;;;;;5098484;28;20213;-85
2022/05/15 03:57:44;;;;;;;24.67;9.53;;;13.70;99.90;;;;;;5095339;28;20207;-84
2022/05/15 04:00:14;;;;;;;22.40;9.27;;;13.70;99.90;;;;;;5094806;28;20294;-84
2022/05/15 04:02:41;;;;;;;20.83;9.50;;;13.70;99.90;;;;;;5098324;28;20197;-88
2022/05/15 04:05:10;;;;;;;22.40;10.13;;;13.80;99.90;;;;;;5099035;28;20437;-88
2022/05/15 04:07:43;;;;;;;21.87;9.90;;;13.60;99.90;;;;;;5098994;28;20264;-88
2022/05/15 04:10:11;;;;;;;18.60;9.93;;;13.70;99.90;;;;;;5096874;28;20211;-88
2022/05/15 04:12:39;;;;;;;17.70;9.27;;;13.80;99.90;;;;;;5097231;28;20231;-90
2022/05/15 04:15:08;;;;;;;22.97;9.80;;;13.70;99.90;;;;;;5097618;28;20205;-89
2022/05/15 04:17:34;;;;;;;22.33;9.87;;;13.70;99.90;;;;;;5097446;28;20210;-87
2022/05/15 04:20:04;;;;;;;22.07;10.13;;;13.70;99.90;;;;;;5097012;28;20214;-87
2022/05/15 04:22:31;;;;;;;23.57;10.03;;;13.60;99.90;;;;;;5097930;28;20194;-88
2022/05/15 04:24:59;;;;;;;27.80;10.33;;;13.70;99.90;;;;;;5097770;28;20206;-89
2022/05/15 04:27:26;;;;;;;24.13;9.63;;;13.70;99.90;;;;;;5097493;28;20240;-87
2022/05/15 04:29:54;;;;;;;24.45;10.95;;;13.60;99.90;;;;;;5097705;28;20893;-90
2022/05/15 04:32:21;;;;;;;21.83;9.80;;;13.60;99.90;;;;;;5098741;28;20231;-87
2022/05/15 04:34:48;;;;;;;23.57;9.90;;;13.70;99.90;;;;;;5097338;28;20206;-89
2022/05/15 04:37:14;;;;;;;27.30;10.47;;;13.80;99.90;;;;;;5098043;28;20201;-89
2022/05/15 04:39:42;;;;;;;24.57;8.93;;;13.70;99.90;;;;;;5098272;28;20214;-88
2022/05/15 04:42:10;;;;;;;17.10;9.17;;;13.80;99.90;;;;;;5097365;28;20216;-91
2022/05/15 04:44:36;;;;;;;24.47;9.30;;;13.80;99.90;;;;;;5097294;28;20659;-87
2022/05/15 04:47:06;;;;;;;21.70;10.03;;;13.90;99.90;;;;;;5102735;28;20209;-86
2022/05/15 04:49:32;;;;;;;23.17;9.87;;;13.90;99.90;;;;;;5106002;28;20207;-86
2022/05/15 04:51:59;;;;;;;25.50;10.47;;;13.90;99.90;;;;;;5101098;28;20234;-87
2022/05/15 04:54:26;;;;;;;23.27;10.60;;;13.90;99.90;;;;;;5097293;28;20434;-85
2022/05/15 04:56:53;;;;;;;21.50;10.33;;;14.00;99.90;;;;;;5097278;28;20218;-83
2022/05/15 04:59:20;;;;;;;19.63;9.70;;;14.10;99.90;;;;;;5097279;28;20216;-85
2022/05/15 05:01:47;;;;;;;17.00;9.50;;;14.10;99.90;;;;;;5084134;28;20205;-87
2022/05/15 05:04:15;;;;;;;22.57;10.10;;;14.30;99.90;;;;;;5074356;28;20298;-88
2022/05/15 05:06:42;;;;;;;18.57;9.67;;;14.20;99.90;;;;;;5074271;28;20626;-89
2022/05/15 05:09:11;;;;;;;18.27;10.00;;;14.30;99.90;;;;;;5081243;28;20243;-88
2022/05/15 05:11:39;;;;;;;22.67;10.00;;;14.30;99.90;;;;;;5084542;28;20240;-87
2022/05/15 05:14:06;;;;;;;16.40;9.50;;;14.40;99.90;;;;;;5082406;28;20208;-86
2022/05/15 05:16:33;;;;;;;20.30;9.70;;;14.60;99.90;;;;;;5076091;28;20216;-87
2022/05/15 05:19:00;;;;;;;21.67;10.90;;;14.60;99.90;;;;;;5076173;28;20502;-85
2022/05/15 05:21:28;;;;;;;22.93;9.77;;;14.90;99.90;;;;;;5076317;28;20212;-88
2022/05/15 05:23:55;;;;;;;17.50;9.43;;;15.00;99.90;;;;;;5075290;28;20217;-87
2022/05/15 05:26:22;;;;;;;21.50;9.40;;;14.80;99.90;;;;;;5075349;28;20204;-84
2022/05/15 05:28:49;;;;;;;22.87;9.90;;;14.50;99.90;;;;;;5075657;28;20202;-86
2022/05/15 05:31:16;;;;;;;20.10;9.50;;;14.70;99.90;;;;;;5074845;28;20230;-87
2022/05/15 05:33:43;;;;;;;24.90;9.90;;;14.70;99.90;;;;;;5076099;28;20271;-87
2022/05/15 05:36:11;;;;;;;20.33;9.57;;;14.50;99.90;;;;;;5076537;28;20610;-86
2022/05/15 05:38:39;;;;;;;22.03;10.17;;;14.70;99.90;;;;;;5075977;28;20212;-87
2022/05/15 05:41:06;;;;;;;20.87;9.80;;;14.70;99.90;;;;;;5074475;28;20225;-88
2022/05/15 05:43:33;;;;;;;18.10;9.73;;;14.80;99.90;;;;;;5075513;28;20216;-89
2022/05/15 05:46:01;;;;;;;15.73;9.23;;;14.90;99.90;;;;;;5075952;28;20209;-88
2022/05/15 05:48:29;;;;;;;19.13;10.07;;;14.80;99.90;;;;;;5074985;28;20201;-86
2022/05/15 05:50:56;;;;;;;19.63;10.40;;;14.80;99.90;;;;;;5075380;28;20198;-88
2022/05/15 05:53:23;;;;;;;19.60;9.07;;;15.00;99.90;;;;;;5075233;28;20198;-87
2022/05/15 05:55:52;;;;;;;20.37;9.67;;;15.00;99.90;;;;;;5075763;28;20305;-87
2022/05/15 05:58:19;;;;;;;18.40;9.70;;;15.20;99.90;;;;;;5075605;28;20198;-86
2022/05/15 06:00:46;;;;;;;16.47;9.10;;;15.50;99.90;;;;;;5073840;28;20209;-86
2022/05/15 06:05:57;;;;;;;22.67;10.05;;;15.50;99.90;;;;;;5074307;28;20511;-86
2022/05/15 06:08:28;;;;;;;17.50;9.73;;;15.30;99.90;;;;;;5075209;28;20209;-87
2022/05/15 06:10:56;;;;;;;22.90;8.63;;;15.50;99.90;;;;;;5074975;28;20190;-86
2022/05/15 06:13:23;;;;;;;20.43;9.43;;;15.60;99.90;;;;;;5074842;28;20212;-87
2022/05/15 06:15:50;;;;;;;15.70;9.40;;;15.80;99.90;;;;;;5074900;28;20203;-87
2022/05/15 06:18:19;;;;;;;16.53;9.07;;;15.70;99.90;;;;;;5074605;28;20194;-88
2022/05/15 06:20:46;;;;;;;13.77;9.17;;;15.60;99.90;;;;;;5074438;28;20202;-87
2022/05/15 06:23:13;;;;;;;23.03;9.43;;;15.90;99.90;;;;;;5074272;28;20201;-87
2022/05/15 06:25:39;;;;;;;21.97;9.90;;;15.90;99.90;;;;;;5074288;28;20207;-86
2022/05/15 06:28:08;;;;;;;14.77;9.20;;;16.10;99.90;;;;;;5080244;28;20199;-86
2022/05/15 06:30:36;;;;;;;18.77;8.87;;;16.20;99.90;;;;;;5096797;28;20199;-83
2022/05/15 06:33:03;;;;;;;15.90;9.20;;;16.40;99.90;;;;;;5095105;28;20293;-85
2022/05/15 06:35:37;;;;;;;17.87;8.77;;;16.50;99.90;;;;;;5096980;28;20192;-86
2022/05/15 06:38:05;;;;;;;18.57;8.07;;;16.70;99.90;;;;;;5095169;28;20220;-85
2022/05/15 06:40:33;;;;;;;12.50;8.40;;;16.70;99.90;;;;;;5096970;28;20197;-86
2022/05/15 06:43:00;;;;;;;16.93;8.93;;;16.60;99.90;;;;;;5097051;28;20273;-86
2022/05/15 06:45:35;;;;;;;17.43;8.73;;;16.80;99.90;;;;;;5097348;28;20212;-87
2022/05/15 06:48:06;;;;;;;15.07;9.20;;;16.80;99.90;;;;;;5097761;28;20206;-87
2022/05/15 06:50:34;;;;;;;17.43;8.57;;;16.80;99.90;;;;;;5098257;28;20208;-86
2022/05/15 06:53:04;;;;;;;18.97;9.10;;;16.80;99.90;;;;;;5097838;28;20705;-87
2022/05/15 06:55:36;;;;;;;19.25;9.38;;;16.90;99.90;;;;;;5097897;28;20436;-87
2022/05/15 06:58:02;;;;;;;15.77;8.47;;;17.00;99.90;;;;;;5101140;28;20206;-87
2022/05/15 07:00:29;;;;;;;19.83;9.37;;;17.10;99.90;;;;;;5104856;28;20203;-85
2022/05/15 07:02:57;;;;;;;15.37;8.50;;;17.30;99.90;;;;;;5102057;28;20217;-87
2022/05/15 07:05:27;;;;;;;14.60;8.33;;;17.40;99.90;;;;;;5098630;28;20227;-86
2022/05/15 07:07:54;;;;;;;16.57;8.47;;;17.60;99.90;;;;;;5095546;28;20192;-90
2022/05/15 07:10:22;;;;;;;15.23;8.63;;;17.60;99.90;;;;;;5097434;28;20204;-90
2022/05/15 07:12:50;;;;;;;12.17;8.03;;;17.80;99.90;;;;;;5097438;28;20221;-88
2022/05/15 07:15:17;;;;;;;21.90;8.87;;;17.90;99.90;;;;;;5097458;28;20569;-89
2022/05/15 07:17:45;;;;;;;14.30;8.10;;;18.10;99.90;;;;;;5097157;28;20200;-87
2022/05/15 07:20:13;;;;;;;17.50;8.60;;;18.10;99.90;;;;;;5094175;28;20601;-85
2022/05/15 07:22:40;;;;;;;20.07;8.40;;;18.30;99.90;;;;;;5096246;28;20216;-87
2022/05/15 07:25:07;;;;;;;14.37;8.03;;;18.50;99.90;;;;;;5095995;28;20214;-87
2022/05/15 07:27:34;;;;;;;15.93;8.60;;;18.60;99.90;;;;;;5099387;28;20194;-88
2022/05/15 07:30:02;;;;;;;16.77;8.23;;;18.70;99.90;;;;;;5096095;28;20264;-89
2022/05/15 07:32:30;;;;;;;15.97;8.13;;;18.80;99.90;;;;;;5095691;28;20227;-87
2022/05/15 07:34:56;;;;;;;13.00;7.20;;;18.90;99.90;;;;;;5096796;28;20198;-89
2022/05/15 07:37:25;;;;;;;14.83;7.87;;;19.10;99.90;;;;;;5099379;28;20198;-88
2022/05/15 07:39:51;;;;;;;15.83;9.10;;;19.20;99.90;;;;;;5103062;28;20430;-87
2022/05/15 07:42:18;;;;;;;15.03;7.63;;;19.40;99.90;;;;;;5101843;28;20268;-86
2022/05/15 07:44:45;;;;;;;13.23;7.70;;;19.30;99.90;;;;;;5103451;28;20200;-88
2022/05/15 07:47:12;;;;;;;17.33;7.47;;;19.40;99.90;;;;;;5096991;28;20227;-88
2022/05/15 07:49:42;;;;;;;12.97;6.97;;;19.40;99.90;;;;;;5096446;28;20190;-86
2022/05/15 07:52:08;;;;;;;14.87;7.40;;;19.50;99.90;;;;;;5094230;28;20218;-88
2022/05/15 07:54:37;;;;;;;13.00;6.83;;;19.50;99.90;;;;;;5097740;28;20219;-88
2022/05/15 07:57:04;;;;;;;11.60;7.00;;;19.70;99.90;;;;;;5097452;28;20205;-90
2022/05/15 07:59:31;;;;;;;9.57;6.57;;;19.80;99.90;;;;;;5098397;28;20204;-87
2022/05/15 08:01:59;;;;;;;15.23;7.00;;;19.90;99.90;;;;;;5098131;28;20217;-88
2022/05/15 08:04:28;;;;;;;17.50;6.80;;;20.00;99.90;;;;;;5095122;28;20204;-86
2022/05/15 08:09:40;;;;;;;12.90;7.47;;;20.30;99.90;;;;;;5115186;28;20317;-88
2022/05/15 08:12:09;;;;;;;14.07;6.63;;;20.40;99.90;;;;;;5114455;28;20239;-87
2022/05/15 08:14:36;;;;;;;9.83;6.43;;;20.50;99.90;;;;;;5113757;28;20210;-86
2022/05/15 08:17:02;;;;;;;11.27;6.00;;;20.60;99.90;;;;;;5114679;28;20217;-86
2022/05/15 08:25:01;;;;;;;14.43;6.33;;;20.90;99.90;;;;;;5114716;28;20191;-87
2022/05/15 08:27:28;;;;;;;14.47;6.50;;;20.80;99.90;;;;;;5114304;28;20203;-87
2022/05/15 08:29:55;;;;;;;11.27;5.63;;;20.80;99.90;;;;;;5114930;28;20211;-87
2022/05/15 08:32:22;;;;;;;9.37;5.30;;;21.00;99.90;;;;;;5115074;28;20690;-89
2022/05/15 08:34:48;;;;;;;11.50;5.20;;;21.10;99.90;;;;;;5115259;28;20261;-88
2022/05/15 08:37:15;;;;;;;11.63;5.67;;;21.20;99.90;;;;;;5117495;28;20193;-89
2022/05/15 08:39:42;;;;;;;13.97;6.00;;;21.20;99.90;;;;;;5115491;28;20192;-89
2022/05/15 08:42:22;;;;;;;11.77;6.20;;;21.20;99.90;;;;;;5114335;28;20212;-85
2022/05/15 08:44:52;;;;;;;11.10;5.50;;;21.50;99.90;;;;;;5114551;28;20200;-87
2022/05/15 08:47:30;;;;;;;14.53;5.80;;;21.70;99.90;;;;;;5114367;28;20207;-87
2022/05/15 08:50:02;;;;;;;14.63;6.15;;;21.70;99.90;;;;;;5114095;28;20412;-90
2022/05/15 08:52:37;;;;;;;10.20;4.77;;;21.90;99.90;;;;;;5101616;28;20279;-86
2022/05/15 08:55:10;;;;;;;8.17;4.80;;;22.20;99.90;;;;;;5094147;28;20220;-90
2022/05/15 08:57:44;;;;;;;11.93;4.97;;;22.20;99.90;;;;;;5092010;28;20194;-88
2022/05/15 09:00:14;;;;;;;8.60;4.00;;;22.10;99.90;;;;;;5094988;28;20620;-89
2022/05/15 09:02:43;;;;;;;11.37;4.80;;;22.30;99.90;;;;;;5094018;28;20203;-90
2022/05/15 09:05:11;;;;;;;9.37;4.23;;;22.40;99.90;;;;;;5094309;28;20193;-87
2022/05/15 09:07:57;;;;;;;5.07;3.67;;;22.50;99.90;;;;;;5094509;28;20540;-91
2022/05/15 09:10:33;;;;;;;9.87;4.30;;;22.50;99.90;;;;;;5094840;28;20204;-89
2022/05/15 09:13:30;;;;;;;7.27;3.40;;;22.70;99.90;;;;;;5098167;28;20733;-91
2022/05/15 09:15:59;;;;;;;8.30;3.47;;;22.80;99.90;;;;;;5113169;28;20256;-92
2022/05/15 09:18:29;;;;;;;8.53;3.33;;;22.80;99.90;;;;;;5112906;28;20288;-87
2022/05/15 09:21:03;;;;;;;6.97;3.67;;;23.10;99.90;;;;;;5108255;28;20311;-85
2022/05/15 09:23:34;;;;;;;8.97;3.70;;;23.10;99.90;;;;;;5112398;28;20204;-86
2022/05/15 09:26:10;;;;;;;9.60;4.03;;;23.30;99.90;;;;;;5113626;28;20652;-85
2022/05/15 09:28:43;;;;;;;7.60;3.93;;;23.20;99.90;;;;;;5111654;28;20567;-83
2022/05/15 09:31:22;;;;;;;10.23;3.60;;;23.00;99.90;;;;;;5092663;28;20219;-84
2022/05/15 09:33:52;;;;;;;9.63;3.37;;;23.20;99.90;;;;;;5093067;28;20232;-84
2022/05/15 09:36:25;;;;;;;6.13;3.30;;;23.20;99.90;;;;;;5093390;28;20555;-85
2022/05/15 09:39:10;;;;;;;7.97;3.10;;;23.40;99.90;;;;;;5092606;28;20709;-84
2022/05/15 09:44:31;;;;;;;9.13;2.97;;;23.50;99.90;;;;;;5093215;28;20204;-84
2022/05/15 09:47:03;;;;;;;7.10;2.83;;;23.70;99.90;;;;;;5092558;28;20427;-83
2022/05/15 09:49:34;;;;;;;4.37;2.53;;;23.80;99.90;;;;;;5092978;28;20204;-84
2022/05/15 09:52:07;;;;;;;7.33;2.90;;;23.90;99.90;;;;;;5093091;28;20204;-85
2022/05/15 09:54:43;;;;;;;5.63;2.87;;;24.00;99.90;;;;;;5092648;28;20205;-85
2022/05/15 09:57:17;;;;;;;4.93;2.50;;;24.30;99.90;;;;;;5093287;28;20236;-84
2022/05/15 09:59:53;;;;;;;6.93;2.90;;;24.20;99.90;;;;;;5092994;28;20605;-83
2022/05/15 10:02:23;;;;;;;8.77;3.33;;;24.20;99.60;;;;;;5093114;28;20189;-83
2022/05/15 10:04:52;;;;;;;9.77;3.10;;;24.10;99.70;;;;;;5095489;28;20422;-84
2022/05/15 10:07:40;;;;;;;5.70;2.77;;;24.30;99.90;;;;;;5097013;28;20551;-84
2022/05/15 10:10:18;;;;;;;9.17;2.90;;;24.20;99.50;;;;;;5096574;28;20190;-82
2022/05/15 10:12:47;;;;;;;7.47;3.07;;;24.20;99.40;;;;;;5096848;28;20227;-84
2022/05/15 10:15:17;;;;;;;8.67;3.20;;;24.10;99.40;;;;;;5096654;28;20538;-83
2022/05/15 10:17:50;;;;;;;8.03;2.87;;;24.30;98.90;;;;;;5096569;28;20201;-84
2022/05/15 10:20:23;;;;;;;7.17;2.67;;;24.30;98.90;;;;;;5097115;28;20205;-89
2022/05/15 10:22:56;;;;;;;3.93;2.33;;;24.60;99.30;;;;;;5096745;28;20205;-84
2022/05/15 10:25:31;;;;;;;12.27;2.77;;;24.60;99.80;;;;;;5096814;28;20205;-86
2022/05/15 10:28:18;;;;;;;7.43;2.60;;;24.80;99.10;;;;;;5097070;28;20246;-84
2022/05/15 10:30:56;;;;;;;7.63;3.00;;;24.90;99.00;;;;;;5097106;28;20190;-85
2022/05/15 10:33:23;;;;;;;8.90;3.07;;;25.00;98.50;;;;;;5097058;28;20233;-84
2022/05/15 10:35:57;;;;;;;9.13;2.97;;;25.10;98.90;;;;;;5096940;28;20197;-84
2022/05/15 10:38:38;;;;;;;5.47;2.73;;;25.00;99.20;;;;;;5096184;28;20192;-85
2022/05/15 10:41:15;;;;;;;9.50;3.03;;;25.10;98.50;;;;;;5096630;28;20663;-85
2022/05/15 10:43:53;;;;;;;7.13;2.70;;;25.10;99.30;;;;;;5096946;28;20204;-87
2022/05/15 10:46:30;;;;;;;5.63;2.30;;;25.30;98.10;;;;;;5096875;28;20189;-87
2022/05/15 10:49:09;;;;;;;4.80;2.23;;;25.60;98.10;;;;;;5096605;28;20239;-86
2022/05/15 10:51:51;;;;;;;3.50;2.10;;;25.80;97.60;;;;;;5095141;28;20232;-90
2022/05/15 10:57:29;;;;;;;4.07;2.03;;;25.70;96.00;;;;;;5098593;28;20193;-85
2022/05/15 11:00:01;;;;;;;3.73;2.23;;;25.80;95.80;;;;;;5095730;28;20254;-86
2022/05/15 11:03:02;;;;;;;3.77;1.90;;;25.70;95.80;;;;;;5097576;28;20197;-88
2022/05/15 11:05:31;;;;;;;6.80;2.10;;;25.50;95.70;;;;;;5096089;28;20258;-89
2022/05/15 11:08:07;;;;;;;6.00;2.10;;;25.70;95.70;;;;;;5098033;28;20276;-90
2022/05/15 11:10:41;;;;;;;2.87;2.00;;;25.70;94.80;;;;;;5096885;28;20239;-85
2022/05/15 11:13:12;;;;;;;7.47;2.87;;;25.40;95.10;;;;;;5096206;28;20229;-89
2022/05/15 11:15:57;;;;;;;6.45;3.72;;;25.40;95.20;;;;;;5106258;28;20406;-85
2022/05/15 11:18:51;;;;;;;13.50;9.17;;;25.40;95.40;;;;;;5107864;28;20241;-86
2022/05/15 11:21:30;;;;;;;7.90;5.43;;;25.40;95.00;;;;;;5095921;28;20197;-85
2022/05/15 11:24:01;;;;;;;4.50;2.00;;;25.50;94.80;;;;;;5096199;28;20201;-86
2022/05/15 11:26:34;;;;;;;6.83;2.63;;;25.30;95.10;;;;;;5095936;28;20550;-85
2022/05/15 11:29:06;;;;;;;4.73;2.13;;;25.40;95.10;;;;;;5096279;28;20201;-83
2022/05/15 11:31:37;;;;;;;5.80;2.10;;;25.70;95.50;;;;;;5095904;28;20189;-84
2022/05/15 11:34:05;;;;;;;4.60;2.43;;;26.00;94.80;;;;;;5096310;28;20244;-84
2022/05/15 11:36:37;;;;;;;2.80;2.03;;;26.20;95.30;;;;;;5095740;28;20190;-85
2022/05/15 11:39:24;;;;;;;3.87;2.10;;;26.40;93.60;;;;;;5095447;28;20254;-84
2022/05/15 11:42:17;;;;;;;3.40;2.50;;;26.40;92.90;;;;;;5096024;28;20249;-85
2022/05/15 11:44:46;;;;;;;4.00;2.43;;;26.70;93.20;;;;;;5095207;28;20205;-84
2022/05/15 11:47:31;;;;;;;7.17;3.03;;;26.60;92.70;;;;;;5095007;28;20201;-85
2022/05/15 11:50:06;;;;;;;6.47;2.50;;;26.80;93.10;;;;;;5095441;28;20209;-87
2022/05/15 11:52:41;;;;;;;4.83;2.87;;;27.10;92.70;;;;;;5095003;28;20204;-88
2022/05/15 11:55:40;;;;;;;5.47;3.78;;;27.10;92.20;;;;;;5093651;28;20436;-85
2022/05/15 11:58:27;;;;;;;3.05;1.58;;;27.00;91.70;;;;;;5094882;28;20205;-84
2022/05/15 12:01:10;;;;;;;2.42;2.03;;;26.80;92.20;;;;;;5094197;28;20299;-85
2022/05/15 12:03:59;;;;;;;2.80;2.10;;;26.80;91.30;;;;;;5094209;28;20201;-84
2022/05/15 12:06:29;;;;;;;8.17;3.20;;;26.80;92.60;;;;;;5093832;28;20197;-84
2022/05/15 12:09:33;;;;;;;6.88;3.20;;;27.10;92.10;;;;;;5095422;28;20577;-84
2022/05/15 12:12:44;;;;;;;7.43;4.30;;;27.10;90.70;;;;;;5095766;28;20201;-84
2022/05/15 12:15:27;;;;;;;4.93;2.87;;;27.10;90.20;;;;;;5054638;28;20195;-88
2022/05/15 12:17:57;;;;;;;3.90;2.55;;;27.00;90.80;;;;;;5091057;28;20205;-85
2022/05/15 12:20:36;;;;;;;6.82;4.35;;;26.90;91.10;;;;;;5095201;28;20205;-86
2022/05/15 12:23:13;;;;;;;4.23;2.43;;;27.10;91.10;;;;;;5095999;28;20200;-84
2022/05/15 12:25:53;;;;;;;3.35;1.90;;;27.10;92.00;;;;;;5095621;28;20284;-85
2022/05/15 12:31:14;;;;;;;2.95;2.00;;;27.50;91.70;;;;;;5095294;28;20208;-85
2022/05/15 12:33:41;;;;;;;4.20;2.05;;;27.50;91.60;;;;;;5095617;28;20256;-85
2022/05/15 12:36:12;;;;;;;4.30;2.28;;;27.50;91.40;;;;;;5097247;28;20201;-85
2022/05/15 12:38:46;;;;;;;5.22;2.25;;;27.50;92.20;;;;;;5094766;28;20205;-85
2022/05/15 12:41:21;;;;;;;6.65;2.28;;;27.70;92.20;;;;;;5095832;28;20196;-87
2022/05/15 12:43:49;;;;;;;11.13;2.35;;;27.70;92.40;;;;;;5095691;28;20209;-85
2022/05/15 12:46:27;;;;;;;4.60;2.28;;;27.60;92.60;;;;;;5094692;28;20224;-85
2022/05/15 12:48:53;;;;;;;6.53;2.58;;;27.60;92.80;;;;;;5094732;28;20200;-84
2022/05/15 12:51:27;;;;;;;4.90;2.33;;;27.40;93.10;;;;;;5095174;28;20284;-83
2022/05/15 12:53:54;;;;;;;4.55;2.67;;;26.90;93.40;;;;;;5094413;28;20225;-85
2022/05/15 12:56:25;;;;;;;4.63;2.72;;;27.00;93.80;;;;;;5094642;28;20201;-85
2022/05/15 12:58:56;;;;;;;6.97;2.60;;;27.30;92.90;;;;;;5095110;28;20204;-86
2022/05/15 13:01:26;;;;;;;2.90;2.45;;;27.50;93.20;;;;;;5095811;28;20204;-88
2022/05/15 13:03:57;;;;;;;5.55;2.40;;;27.90;93.20;;;;;;5097553;28;20205;-86
2022/05/15 13:06:30;;;;;;;5.53;2.95;;;27.90;92.90;;;;;;5096273;28;20201;-84
2022/05/15 13:09:00;;;;;;;3.00;2.33;;;28.30;93.00;;;;;;5095566;28;20203;-85
2022/05/15 13:11:38;;;;;;;5.85;2.45;;;28.40;92.90;;;;;;5096011;28;20209;-85
2022/05/15 13:14:06;;;;;;;3.20;2.67;;;28.60;92.40;;;;;;5094715;28;20255;-84
2022/05/15 13:16:35;;;;;;;3.90;2.65;;;28.40;92.00;;;;;;5095728;28;20205;-85